Little River, SC (29566)

11:02 AM EDT on September 01, 2015 (GMT -0400)
Lafayette Park | | Change Station
CLOSE
Current Station
Personal Weather Station
Location: Little River, SC
Elevation: 20 ft
Nearby Weather Stations

Elev 20 ft 33.89 °N, 78.63 °W | Updated 3 seconds ago

Clear
Clear
81.9 °F
Feels Like 84 °F
N
5.4
Wind Variable Wind from NW
Gusts 7.6 mph

Today
High -- | Low -- °F
--% Chance of Precip.
Yesterday
High -- | Low -- °F
Precip. -- in
6:48 AM 7:40 PM
Waning Gibbous, 88% visible
Pressure 30.13 in
Visibility 10.0 miles
Clouds Clear
Heat Index 84 °F
Dew Point 66 °F
Humidity 59%
Rainfall 0.00 in
Snow Depth Not available.
UV 8 out of 12
Pollen 8.10 out of 12
Air Quality Not available.
Flu Activity Not available.
METAR KCRE 011453Z VRB04KT 10SM CLR 28/22 A3012 RMK AO1 SLP202 T02780222 51007
Pressure 30.13 in
Visibility 10.0 miles
Clouds Clear
Heat Index 84 °F
Dew Point 66 °F
Humidity 59%
Rainfall 0.00 in
Snow Depth Not available.
UV 8 out of 12
Pollen 8.10 out of 12
Air Quality Not available.
Flu Activity Not available.
METAR KCRE 011453Z VRB04KT 10SM CLR 28/22 A3012 RMK AO1 SLP202 T02780222 51007

10-Day Weather Forecast

×

Almanac

Astronomy

Sep. 01, 2015 Rise Set
Actual Time
Civil Twilight
Nautical Twilight
Astronomical Twilight
Moon
Length of Visible Light
Length of Day
Tomorrow will be .
, % of the Moon is Illuminated

Today's Extremes

State Highs State Lows

Community

WunderPhotos

Upload Photos

1,851,520 photos uploaded!

WunderBlogs® & News

Nearby

Air Quality

  Air Quality AQ Index Pollutant
Not available.

Snow Depth

Station Depth Elevation

Earthquake Activity

City Distance Mag. Time & Date
Minimum magnitude displayed is 2.5.

Coastal Water Temperatures

Place Temperature

Stations

Nearby Weather Stations

Station Location Temp. Windchill Dew Point Humidity Wind Precip. Elev Updated Type